Time;durP1;ratioP1;P1;durP2;ratioP2;P2;SDS_P1;SDS_P2;PMS_P1;PMS_P2;Temp;Humidity;BMP_temperature;BMP_pressure;BME280_temperature;BME280_humidity;BME280_pressure;Samples;Min_cycle;Max_cycle;Signal;HPM_P1;HPM_P2
2022/03/21 00:00:50;;;;;;;;;;;;;;;6.23;44.43;93980.38;2055054;70;20133;-73
2022/03/21 00:03:17;;;;;;;;;;;;;;;6.36;43.83;93978.19;2055418;69;20058;-73
2022/03/21 00:05:45;;;;;;;;;;;;;;;6.30;44.23;93976.88;2055865;69;20089;-73
2022/03/21 00:08:11;;;;;;;;;;;;;;;6.03;45.15;93970.78;2055521;70;20039;-75
2022/03/21 00:10:37;;;;;;;;;;;;;;;6.29;43.89;93972.59;2055413;70;20062;-72
2022/03/21 00:13:03;;;;;;;;;;;;;;;6.21;44.37;93966.22;2055636;70;20481;-74
2022/03/21 00:15:32;;;;;;;;;;;;;;;6.18;44.87;93962.47;2055257;70;20552;-75
2022/03/21 00:18:03;;;;;;;;;;;;;;;6.18;44.13;93968.06;2055366;70;20063;-75
2022/03/21 00:20:29;;;;;;;;;;;;;;;6.04;45.19;93955.50;2055337;70;20442;-72
2022/03/21 00:22:56;;;;;;;;;;;;;;;6.11;44.54;93961.13;2055288;70;20061;-72
2022/03/21 00:25:22;;;;;;;;;;;;;;;6.47;42.80;93962.41;2055301;70;20062;-72
2022/03/21 00:27:49;;;;;;;;;;;;;;;6.46;43.35;93958.09;2055310;69;20090;-72
2022/03/21 00:30:15;;;;;;;;;;;;;;;6.29;43.92;93958.63;2067782;69;20473;-72
2022/03/21 00:32:42;;;;;;;;;;;;;;;6.03;45.21;93959.59;2068226;69;20062;-73
2022/03/21 00:35:08;;;;;;;;;;;;;;;6.08;45.27;93958.69;2068293;69;20049;-73
2022/03/21 00:37:34;;;;;;;;;;;;;;;5.98;44.71;93955.66;2055351;70;20569;-73
2022/03/21 00:40:00;;;;;;;;;;;;;;;6.11;44.14;93961.13;2055463;70;20054;-72
2022/03/21 00:42:26;;;;;;;;;;;;;;;5.98;45.53;93964.03;2055568;70;20050;-74
2022/03/21 00:44:52;;;;;;;;;;;;;;;5.81;45.46;93961.66;2055206;69;20146;-73
2022/03/21 00:47:17;;;;;;;;;;;;;;;5.96;45.49;93963.13;2055429;69;20177;-73
2022/03/21 00:49:44;;;;;;;;;;;;;;;5.73;46.10;93974.88;2055651;70;20173;-73
2022/03/21 00:52:09;;;;;;;;;;;;;;;5.75;46.08;93960.34;2055342;70;20054;-73
2022/03/21 00:54:35;;;;;;;;;;;;;;;5.56;45.67;93963.38;2055429;70;20480;-73
2022/03/21 00:57:01;;;;;;;;;;;;;;;5.52;46.16;93957.38;2055605;69;20042;-72
2022/03/21 00:59:26;;;;;;;;;;;;;;;5.55;46.33;93959.84;2055258;69;20432;-73
2022/03/21 01:01:51;;;;;;;;;;;;;;;5.58;46.54;93960.78;2055657;70;20140;-73
2022/03/21 01:04:17;;;;;;;;;;;;;;;5.52;44.88;93963.72;2055586;70;20050;-72
2022/03/21 01:06:42;;;;;;;;;;;;;;;5.47;45.91;93967.41;2055452;70;20464;-73
2022/03/21 01:09:12;;;;;;;;;;;;;;;5.59;45.80;93959.50;2055124;70;20054;-74
2022/03/21 01:11:37;;;;;;;;;;;;;;;5.50;46.37;93951.63;2055502;69;20084;-74
2022/03/21 01:14:03;;;;;;;;;;;;;;;5.57;45.94;93950.91;2055432;70;20498;-75
2022/03/21 01:16:28;;;;;;;;;;;;;;;5.49;46.19;93958.47;2055629;70;20046;-74
2022/03/21 01:18:54;;;;;;;;;;;;;;;5.44;46.01;93962.91;2055639;69;20066;-75
2022/03/21 01:21:19;;;;;;;;;;;;;;;5.47;46.71;93975.03;2055396;70;20406;-74
2022/03/21 01:23:45;;;;;;;;;;;;;;;5.32;47.15;93972.88;2055356;70;20050;-73
2022/03/21 01:26:10;;;;;;;;;;;;;;;5.35;46.20;93972.53;2055181;70;20077;-73
2022/03/21 01:28:37;;;;;;;;;;;;;;;5.37;47.06;93968.44;2055198;70;20052;-73
2022/03/21 01:31:02;;;;;;;;;;;;;;;5.08;48.65;93974.72;2055329;69;20423;-72
2022/03/21 01:33:30;;;;;;;;;;;;;;;4.94;47.79;93983.69;2055010;69;20062;-74
2022/03/21 01:35:56;;;;;;;;;;;;;;;5.10;47.20;93982.56;2055470;69;20141;-73
2022/03/21 01:38:21;;;;;;;;;;;;;;;5.04;48.02;93987.50;2055475;69;20149;-73
2022/03/21 01:40:47;;;;;;;;;;;;;;;5.22;46.99;93977.44;2055287;69;20120;-73
2022/03/21 01:43:13;;;;;;;;;;;;;;;4.79;48.67;93984.28;2055409;70;20174;-73
2022/03/21 01:45:39;;;;;;;;;;;;;;;5.03;47.04;93980.44;2055787;69;20054;-72
2022/03/21 01:48:04;;;;;;;;;;;;;;;5.01;47.59;93974.66;2055428;69;20629;-74
2022/03/21 01:50:30;;;;;;;;;;;;;;;5.15;46.84;93983.72;2055926;69;20053;-74
2022/03/21 01:55:48;;;;;;;;;;;;;;;4.96;45.60;93984.66;2055515;70;20050;-75
2022/03/21 01:58:14;;;;;;;;;;;;;;;5.10;46.35;93977.72;2055817;70;20048;-76
2022/03/21 02:00:41;;;;;;;;;;;;;;;4.71;48.82;93989.03;2068392;69;20086;-74
2022/03/21 02:03:06;;;;;;;;;;;;;;;5.10;46.66;93990.94;2055747;70;20054;-75
2022/03/21 02:05:33;;;;;;;;;;;;;;;5.08;47.55;93994.25;2055797;70;20062;-75
2022/03/21 02:08:00;;;;;;;;;;;;;;;5.00;47.09;93992.69;2055677;70;20054;-73
2022/03/21 02:10:26;;;;;;;;;;;;;;;4.82;48.05;93992.34;2068203;69;20057;-73
2022/03/21 02:12:52;;;;;;;;;;;;;;;5.03;45.45;93986.75;2055721;69;20058;-73
2022/03/21 02:15:18;;;;;;;;;;;;;;;4.95;47.57;93987.97;2055545;69;20065;-73
2022/03/21 02:17:46;;;;;;;;;;;;;;;4.83;47.93;93984.72;2055602;70;20053;-73
2022/03/21 02:20:16;;;;;;;;;;;;;;;4.73;48.80;93992.06;2055659;69;20050;-74
2022/03/21 02:22:56;;;;;;;;;;;;;;;4.74;47.13;93988.72;2055359;70;20058;-73
2022/03/21 02:25:29;;;;;;;;;;;;;;;4.61;48.98;93985.97;2055648;69;20052;-75
2022/03/21 02:27:56;;;;;;;;;;;;;;;4.57;48.83;93985.53;2068824;69;20141;-74
2022/03/21 02:30:24;;;;;;;;;;;;;;;4.65;48.57;93983.59;2055348;70;20440;-75
2022/03/21 02:32:50;;;;;;;;;;;;;;;4.79;46.49;93985.03;2055914;70;20098;-74
2022/03/21 02:35:16;;;;;;;;;;;;;;;4.72;47.81;93991.31;2055892;69;20079;-76
2022/03/21 02:37:43;;;;;;;;;;;;;;;4.63;48.20;93983.41;2056010;69;20058;-75
2022/03/21 02:40:11;;;;;;;;;;;;;;;4.58;48.52;93992.63;2055890;70;20058;-75
2022/03/21 02:42:38;;;;;;;;;;;;;;;4.63;47.97;93993.78;2055929;70;20055;-75
2022/03/21 02:45:04;;;;;;;;;;;;;;;4.64;47.27;93995.31;2055784;69;20058;-75
2022/03/21 02:47:29;;;;;;;;;;;;;;;4.54;48.37;93992.22;2055881;69;20062;-74
2022/03/21 02:49:55;;;;;;;;;;;;;;;4.67;47.55;93999.78;2055905;70;20531;-73
2022/03/21 02:52:22;;;;;;;;;;;;;;;4.38;48.76;93994.06;2055724;70;20039;-74
2022/03/21 02:54:48;;;;;;;;;;;;;;;4.44;48.29;94002.31;2055933;70;20439;-74
2022/03/21 02:57:13;;;;;;;;;;;;;;;4.48;47.69;93997.91;2055989;70;20473;-74
2022/03/21 02:59:39;;;;;;;;;;;;;;;4.41;48.17;93998.56;2055754;69;20047;-74
2022/03/21 03:02:07;;;;;;;;;;;;;;;4.24;49.11;93998.16;2068858;69;20479;-73
2022/03/21 03:04:32;;;;;;;;;;;;;;;4.41;48.78;94003.41;2055970;69;20109;-75
2022/03/21 03:06:58;;;;;;;;;;;;;;;4.21;48.69;94011.13;2056006;70;20090;-74
2022/03/21 03:09:23;;;;;;;;;;;;;;;4.21;48.75;94011.13;2055972;69;20224;-76
2022/03/21 03:11:48;;;;;;;;;;;;;;;4.11;49.36;94014.91;2055783;70;20504;-74
2022/03/21 03:14:14;;;;;;;;;;;;;;;4.02;49.31;94014.03;2055724;69;20528;-73
2022/03/21 03:16:40;;;;;;;;;;;;;;;4.00;49.38;94011.06;2055974;70;20047;-73
2022/03/21 03:19:05;;;;;;;;;;;;;;;3.90;49.66;94010.00;2055846;70;20130;-74
2022/03/21 03:21:38;;;;;;;;;;;;;;;4.02;49.09;94014.03;2055847;70;20049;-73
2022/03/21 03:24:04;;;;;;;;;;;;;;;4.01;49.69;94012.56;2055893;70;20073;-73
2022/03/21 03:26:30;;;;;;;;;;;;;;;4.08;48.68;94020.28;2055843;69;20147;-75
2022/03/21 03:28:56;;;;;;;;;;;;;;;4.07;49.08;94023.56;2055710;70;20413;-75
2022/03/21 03:31:22;;;;;;;;;;;;;;;4.07;49.09;94018.75;2055850;70;20046;-75
2022/03/21 03:33:47;;;;;;;;;;;;;;;4.03;48.97;94021.13;2055814;69;20496;-73
2022/03/21 03:36:15;;;;;;;;;;;;;;;3.83;50.55;94024.56;2055834;70;20078;-75
2022/03/21 03:38:40;;;;;;;;;;;;;;;4.08;48.69;94028.63;2055785;70;20579;-73
2022/03/21 03:41:06;;;;;;;;;;;;;;;4.04;48.35;94031.00;2055796;69;20090;-73
2022/03/21 03:43:32;;;;;;;;;;;;;;;4.07;48.26;94031.94;2055957;69;20073;-76
2022/03/21 03:45:58;;;;;;;;;;;;;;;3.68;50.02;94039.00;2068605;69;20062;-74
2022/03/21 03:48:24;;;;;;;;;;;;;;;4.11;47.78;94043.53;2055804;69;20046;-74
2022/03/21 03:50:51;;;;;;;;;;;;;;;3.87;50.18;94040.94;2055795;69;20035;-73
2022/03/21 03:53:18;;;;;;;;;;;;;;;3.63;50.90;94039.84;2055698;70;20125;-74
2022/03/21 03:55:43;;;;;;;;;;;;;;;3.85;50.72;94037.94;2068653;69;20085;-73
2022/03/21 03:58:08;;;;;;;;;;;;;;;3.86;50.04;94034.63;2055762;69;20090;-74
2022/03/21 04:00:35;;;;;;;;;;;;;;;3.82;49.27;94042.56;2055572;70;20619;-73
2022/03/21 04:05:45;;;;;;;;;;;;;;;3.64;49.87;94035.78;2055909;70;20050;-74
2022/03/21 04:08:10;;;;;;;;;;;;;;;3.71;50.35;94043.53;2068718;69;20050;-75
2022/03/21 04:10:36;;;;;;;;;;;;;;;3.77;49.66;94033.03;2055613;70;20104;-75
2022/03/21 04:13:01;;;;;;;;;;;;;;;3.90;49.14;94039.88;2055821;70;20153;-76
2022/03/21 04:15:27;;;;;;;;;;;;;;;3.65;50.31;94036.53;2055634;70;20076;-76
2022/03/21 04:17:53;;;;;;;;;;;;;;;3.73;49.37;94040.19;2068743;69;20501;-75
2022/03/21 04:20:21;;;;;;;;;;;;;;;3.60;50.40;94035.34;2055734;69;20160;-72
2022/03/21 04:22:47;;;;;;;;;;;;;;;3.63;49.64;94037.06;2068728;69;20508;-74
2022/03/21 04:25:13;;;;;;;;;;;;;;;3.51;50.15;94038.53;2055846;69;20082;-75
2022/03/21 04:27:39;;;;;;;;;;;;;;;3.19;51.65;94041.34;2055712;70;20052;-74
2022/03/21 04:30:06;;;;;;;;;;;;;;;3.37;51.19;94048.16;2055613;69;20157;-76
2022/03/21 04:32:32;;;;;;;;;;;;;;;3.35;50.76;94050.72;2055668;70;20061;-76
2022/03/21 04:34:57;;;;;;;;;;;;;;;3.29;50.96;94045.97;2068868;69;20054;-75
2022/03/21 04:37:23;;;;;;;;;;;;;;;3.16;50.83;94053.53;2055678;70;20120;-73
2022/03/21 04:39:48;;;;;;;;;;;;;;;3.38;50.60;94060.78;2055699;70;20132;-75
2022/03/21 04:42:14;;;;;;;;;;;;;;;3.23;51.59;94059.25;2055694;70;20497;-74
2022/03/21 04:44:40;;;;;;;;;;;;;;;3.23;50.85;94064.06;2055751;70;20161;-74
2022/03/21 04:47:06;;;;;;;;;;;;;;;3.43;49.53;94066.25;2055671;69;20505;-75
2022/03/21 04:49:32;;;;;;;;;;;;;;;3.39;49.53;94059.50;2055640;70;20050;-75
2022/03/21 04:51:58;;;;;;;;;;;;;;;3.27;50.05;94068.03;2065874;69;20409;-73
2022/03/21 04:54:27;;;;;;;;;;;;;;;2.99;51.35;94065.69;2055653;69;20062;-73
2022/03/21 04:56:53;;;;;;;;;;;;;;;3.26;50.20;94072.13;2055663;70;20189;-73
2022/03/21 04:59:18;;;;;;;;;;;;;;;3.35;49.80;94067.44;2055506;70;20509;-74
2022/03/21 05:01:44;;;;;;;;;;;;;;;3.32;49.73;94069.22;2055666;70;20085;-72
2022/03/21 05:04:09;;;;;;;;;;;;;;;3.20;50.71;94065.88;2055745;69;20053;-74
2022/03/21 05:06:35;;;;;;;;;;;;;;;3.26;49.80;94071.38;2068570;69;20146;-74
2022/03/21 05:09:03;;;;;;;;;;;;;;;3.22;50.41;94079.28;2055761;70;20057;-75
2022/03/21 05:11:29;;;;;;;;;;;;;;;3.09;51.46;94074.41;2068200;69;20046;-74
2022/03/21 05:13:55;;;;;;;;;;;;;;;3.18;50.95;94079.56;2055521;70;20085;-76
2022/03/21 05:16:21;;;;;;;;;;;;;;;3.34;49.70;94083.38;2055448;70;20062;-75
2022/03/21 05:18:48;;;;;;;;;;;;;;;3.34;50.28;94085.41;2055596;70;20058;-75
2022/03/21 05:21:14;;;;;;;;;;;;;;;3.14;50.90;94086.72;2068672;69;20116;-76
2022/03/21 05:31:51;;;;;;;;;;;;;;;3.26;49.93;94086.03;2055593;70;20057;-75
2022/03/21 05:37:00;;;;;;;;;;;;;;;3.36;49.88;94085.63;2055548;70;20046;-76
2022/03/21 05:39:26;;;;;;;;;;;;;;;3.23;50.38;94092.66;2055538;70;20058;-73
2022/03/21 05:41:52;;;;;;;;;;;;;;;3.25;50.63;94097.66;2055410;70;20062;-76
2022/03/21 05:44:19;;;;;;;;;;;;;;;3.30;50.91;94096.84;2055421;70;20145;-73
2022/03/21 05:46:44;;;;;;;;;;;;;;;3.15;50.97;94099.34;2055522;70;20582;-73
2022/03/21 05:49:10;;;;;;;;;;;;;;;3.23;50.77;94091.91;2055417;70;20061;-74
2022/03/21 05:51:36;;;;;;;;;;;;;;;3.26;50.59;94097.16;2055546;69;20540;-74
2022/03/21 05:54:03;;;;;;;;;;;;;;;3.23;50.86;94098.22;2055462;69;20046;-75
2022/03/21 05:56:29;;;;;;;;;;;;;;;3.45;48.79;94099.16;2055500;70;20082;-74
2022/03/21 05:58:55;;;;;;;;;;;;;;;3.32;51.32;94099.84;2055430;70;20443;-74
2022/03/21 06:01:24;;;;;;;;;;;;;;;3.47;50.47;94104.94;2055508;69;20049;-74
2022/03/21 06:03:50;;;;;;;;;;;;;;;3.38;51.55;94105.31;2055520;69;20061;-73
2022/03/21 06:06:15;;;;;;;;;;;;;;;3.44;50.87;94106.00;2055468;70;20046;-73
2022/03/21 06:08:42;;;;;;;;;;;;;;;3.53;51.38;94108.41;2055709;69;20050;-75
2022/03/21 06:11:08;;;;;;;;;;;;;;;3.54;51.23;94112.69;2055375;70;20147;-74
2022/03/21 06:13:34;;;;;;;;;;;;;;;3.59;49.84;94120.19;2055424;70;20050;-73
2022/03/21 06:16:03;;;;;;;;;;;;;;;3.91;48.56;94117.38;2068411;69;20058;-74
2022/03/21 06:18:32;;;;;;;;;;;;;;;3.76;50.28;94119.91;2055439;70;20058;-73
2022/03/21 06:20:59;;;;;;;;;;;;;;;3.73;50.78;94121.72;2055476;69;20050;-74
2022/03/21 06:23:25;;;;;;;;;;;;;;;3.82;50.89;94121.31;2055479;69;20070;-74
2022/03/21 06:25:53;;;;;;;;;;;;;;;3.92;49.89;94118.84;2055570;69;20062;-76
2022/03/21 06:28:19;;;;;;;;;;;;;;;3.95;50.73;94122.63;2055906;70;20235;-75
2022/03/21 06:30:44;;;;;;;;;;;;;;;4.02;50.60;94119.94;2055852;69;20460;-74
2022/03/21 06:33:10;;;;;;;;;;;;;;;4.06;50.39;94128.00;2055895;70;20050;-75
2022/03/21 06:35:35;;;;;;;;;;;;;;;4.29;49.43;94117.94;2055899;70;20051;-74
2022/03/21 06:38:01;;;;;;;;;;;;;;;4.34;50.33;94119.84;2055920;70;20046;-76
2022/03/21 06:40:27;;;;;;;;;;;;;;;4.46;50.06;94117.63;2056043;70;20153;-76
2022/03/21 06:42:52;;;;;;;;;;;;;;;4.64;49.28;94121.56;2056074;69;20503;-76
2022/03/21 06:45:17;;;;;;;;;;;;;;;4.80;49.20;94128.84;2068811;69;20057;-75
2022/03/21 06:47:43;;;;;;;;;;;;;;;4.84;49.48;94136.88;2055915;69;20473;-74
2022/03/21 06:50:10;;;;;;;;;;;;;;;4.68;49.41;94138.00;2068885;69;20138;-74
2022/03/21 06:52:38;;;;;;;;;;;;;;;4.99;48.34;94130.75;2055990;69;20057;-74
2022/03/21 06:55:05;;;;;;;;;;;;;;;5.18;47.88;94125.78;2055886;69;20137;-73
2022/03/21 06:57:31;;;;;;;;;;;;;;;5.29;48.24;94133.13;2055903;70;20057;-74
2022/03/21 06:59:56;;;;;;;;;;;;;;;5.25;47.28;94129.94;2055767;69;20047;-73
2022/03/21 07:02:23;;;;;;;;;;;;;;;5.57;45.87;94138.06;2055920;70;20058;-75
2022/03/21 07:04:48;;;;;;;;;;;;;;;5.51;48.35;94132.63;2055898;70;20050;-75
2022/03/21 07:07:14;;;;;;;;;;;;;;;5.47;48.78;94143.38;2055865;69;20115;-75
2022/03/21 07:09:39;;;;;;;;;;;;;;;5.64;46.46;94137.41;2055865;70;20447;-76
2022/03/21 07:12:05;;;;;;;;;;;;;;;5.73;46.22;94136.19;2055857;70;20481;-75
2022/03/21 07:14:30;;;;;;;;;;;;;;;5.82;44.61;94138.53;2055683;69;20500;-76
2022/03/21 07:16:56;;;;;;;;;;;;;;;5.79;46.81;94140.34;2055819;70;20049;-75
2022/03/21 07:19:21;;;;;;;;;;;;;;;5.95;45.24;94144.03;2055861;70;20057;-75
2022/03/21 07:21:46;;;;;;;;;;;;;;;6.11;45.18;94134.50;2055838;69;20058;-75
2022/03/21 07:24:13;;;;;;;;;;;;;;;6.26;46.41;94136.66;2055860;70;20473;-74
2022/03/21 07:26:38;;;;;;;;;;;;;;;6.34;46.72;94139.50;2055795;70;20107;-75
2022/03/21 07:29:07;;;;;;;;;;;;;;;6.31;46.87;94137.81;2068677;69;20074;-75
2022/03/21 07:31:33;;;;;;;;;;;;;;;6.50;45.97;94134.75;2055929;69;20082;-75
2022/03/21 07:33:59;;;;;;;;;;;;;;;6.34;46.91;94142.31;2055901;69;20088;-75
2022/03/21 07:36:24;;;;;;;;;;;;;;;6.47;46.31;94136.63;2055819;70;20504;-75
2022/03/21 07:38:49;;;;;;;;;;;;;;;6.85;44.22;94134.03;2055941;70;20050;-75
2022/03/21 07:41:18;;;;;;;;;;;;;;;7.22;43.55;94134.75;2055803;69;20047;-75
2022/03/21 07:43:43;;;;;;;;;;;;;;;7.32;44.37;94138.50;2055730;70;20090;-78
2022/03/21 07:48:53;;;;;;;;;;;;;;;7.70;42.58;94137.88;2055775;70;20054;-74
2022/03/21 07:51:19;;;;;;;;;;;;;;;8.01;43.23;94132.28;2055895;70;20049;-75
2022/03/21 07:53:44;;;;;;;;;;;;;;;8.04;43.38;94137.53;2055771;69;20077;-74
2022/03/21 07:56:09;;;;;;;;;;;;;;;7.79;42.74;94134.53;2055857;69;20132;-74
2022/03/21 07:58:36;;;;;;;;;;;;;;;8.16;41.91;94137.94;2055920;70;20065;-75
2022/03/21 08:01:02;;;;;;;;;;;;;;;8.39;41.95;94135.91;2055652;70;20053;-75
2022/03/21 08:03:27;;;;;;;;;;;;;;;8.27;42.83;94129.13;2055737;70;20047;-75
2022/03/21 08:05:53;;;;;;;;;;;;;;;8.59;40.82;94128.56;2055782;70;20499;-75
2022/03/21 08:08:20;;;;;;;;;;;;;;;8.63;41.38;94133.81;2055769;70;20062;-77
2022/03/21 08:10:48;;;;;;;;;;;;;;;8.73;41.20;94129.09;2055723;70;20054;-77
2022/03/21 08:13:17;;;;;;;;;;;;;;;9.03;40.44;94130.34;2055881;70;20046;-76
2022/03/21 08:15:43;;;;;;;;;;;;;;;9.12;39.74;94129.75;2055593;70;20495;-76
2022/03/21 08:18:10;;;;;;;;;;;;;;;9.47;39.10;94127.91;2055704;70;20477;-76
2022/03/21 08:20:39;;;;;;;;;;;;;;;9.77;38.24;94129.81;2068684;69;20050;-77
2022/03/21 08:23:10;;;;;;;;;;;;;;;9.65;37.66;94126.69;2055688;69;20073;-76
2022/03/21 08:25:36;;;;;;;;;;;;;;;9.63;38.03;94131.41;2055829;70;20074;-75
2022/03/21 08:28:03;;;;;;;;;;;;;;;10.12;36.42;94127.88;2055703;70;20436;-74
2022/03/21 08:30:32;;;;;;;;;;;;;;;10.35;36.10;94129.78;2055603;70;20057;-75
2022/03/21 08:32:58;;;;;;;;;;;;;;;10.55;35.71;94134.31;2055657;69;20186;-75
2022/03/21 08:35:24;;;;;;;;;;;;;;;10.99;36.59;94132.94;2055813;69;20147;-75
2022/03/21 08:37:49;;;;;;;;;;;;;;;11.01;35.33;94124.69;2055660;70;20481;-77
2022/03/21 08:40:15;;;;;;;;;;;;;;;10.73;34.47;94129.47;2055660;70;20167;-77
2022/03/21 08:42:41;;;;;;;;;;;;;;;10.98;33.33;94120.19;2068623;69;20101;-76
2022/03/21 08:45:07;;;;;;;;;;;;;;;10.72;33.67;94122.34;2055510;69;20054;-76
2022/03/21 08:47:33;;;;;;;;;;;;;;;10.60;34.05;94127.69;2055763;69;20057;-76
2022/03/21 08:49:58;;;;;;;;;;;;;;;12.07;34.30;94122.56;2055450;69;20137;-77
2022/03/21 08:52:24;;;;;;;;;;;;;;;11.69;32.53;94123.09;2055727;70;20050;-77
2022/03/21 08:54:49;;;;;;;;;;;;;;;12.12;33.22;94118.00;2055615;70;20084;-76
2022/03/21 08:57:15;;;;;;;;;;;;;;;12.80;32.17;94118.94;2055777;69;20105;-77
2022/03/21 08:59:41;;;;;;;;;;;;;;;13.28;32.70;94120.34;2055566;69;20086;-76
2022/03/21 09:02:08;;;;;;;;;;;;;;;12.46;30.96;94112.19;2055636;69;20047;-77
2022/03/21 09:04:35;;;;;;;;;;;;;;;13.27;31.78;94116.78;2055698;70;20204;-76
2022/03/21 09:07:01;;;;;;;;;;;;;;;13.58;32.25;94105.59;2068563;69;20053;-76
2022/03/21 09:09:26;;;;;;;;;;;;;;;14.55;29.57;94113.81;2055633;70;20054;-76
2022/03/21 09:11:52;;;;;;;;;;;;;;;14.33;29.82;94103.72;2055618;70;20066;-77
2022/03/21 09:14:18;;;;;;;;;;;;;;;14.94;28.91;94100.16;2068463;69;20054;-76
2022/03/21 09:16:44;;;;;;;;;;;;;;;14.93;27.92;94098.66;2055561;70;20231;-77
2022/03/21 09:19:10;;;;;;;;;;;;;;;14.77;29.43;94094.00;2068541;69;20053;-77
2022/03/21 09:21:36;;;;;;;;;;;;;;;14.21;27.98;94098.72;2055558;70;20047;-76
2022/03/21 09:24:02;;;;;;;;;;;;;;;14.67;26.81;94091.97;2055566;69;20054;-77
2022/03/21 09:26:28;;;;;;;;;;;;;;;14.92;27.07;94096.44;2068527;69;20050;-76
2022/03/21 09:28:59;;;;;;;;;;;;;;;15.38;28.11;94093.09;2055421;69;20149;-75
2022/03/21 09:31:28;;;;;;;;;;;;;;;15.81;27.36;94087.34;2055680;70;20082;-75
2022/03/21 09:33:56;;;;;;;;;;;;;;;15.10;26.06;94083.47;2055649;69;20145;-75
2022/03/21 09:36:21;;;;;;;;;;;;;;;15.76;27.15;94079.94;2055537;70;20265;-75
2022/03/21 09:38:47;;;;;;;;;;;;;;;16.54;25.56;94079.78;2068190;69;20173;-78
2022/03/21 09:41:13;;;;;;;;;;;;;;;16.06;25.94;94078.25;2055473;70;20073;-74
2022/03/21 09:43:39;;;;;;;;;;;;;;;15.78;25.55;94079.31;2055587;70;20054;-76
2022/03/21 09:46:06;;;;;;;;;;;;;;;16.86;24.62;94078.19;2055451;70;20115;-75
2022/03/21 09:48:33;;;;;;;;;;;;;;;17.36;24.28;94073.19;2068548;69;20421;-74
2022/03/21 09:50:59;;;;;;;;;;;;;;;17.35;23.95;94075.31;2055522;70;20107;-75
2022/03/21 09:53:25;;;;;;;;;;;;;;;17.55;24.58;94067.22;2055457;70;20139;-74
2022/03/21 09:55:51;;;;;;;;;;;;;;;17.66;23.66;94065.66;2055509;70;20481;-75
2022/03/21 09:58:16;;;;;;;;;;;;;;;17.64;23.95;94068.38;2068438;69;20054;-74
2022/03/21 10:00:43;;;;;;;;;;;;;;;17.81;22.85;94061.53;2055358;70;20141;-74
2022/03/21 10:03:09;;;;;;;;;;;;;;;18.06;22.76;94052.22;2055919;70;20062;-76
2022/03/21 10:05:38;;;;;;;;;;;;;;;17.58;22.72;94057.41;2056024;69;20073;-75
2022/03/21 10:08:11;;;;;;;;;;;;;;;18.06;22.99;94050.09;2055982;70;20444;-73
2022/03/21 10:10:37;;;;;;;;;;;;;;;17.81;22.83;94045.16;2055846;69;20489;-77
2022/03/21 10:13:03;;;;;;;;;;;;;;;18.67;22.51;94049.75;2056064;69;20050;-73
2022/03/21 10:15:29;;;;;;;;;;;;;;;17.49;21.50;94046.91;2055801;69;20389;-75
2022/03/21 10:18:07;;;;;;;;;;;;;;;17.06;23.21;94038.78;2055963;69;20073;-74
2022/03/21 10:20:33;;;;;;;;;;;;;;;17.36;22.68;94048.31;2055936;70;20511;-75
2022/03/21 10:23:14;;;;;;;;;;;;;;;17.39;22.79;94038.53;2055967;69;20521;-75
2022/03/21 10:25:40;;;;;;;;;;;;;;;17.03;22.88;94037.91;2056034;69;20057;-72
2022/03/21 10:28:05;;;;;;;;;;;;;;;17.11;22.79;94026.28;2055848;70;20058;-74
2022/03/21 10:30:31;;;;;;;;;;;;;;;18.37;22.12;94034.63;2055741;69;20050;-75
2022/03/21 10:32:57;;;;;;;;;;;;;;;18.42;22.13;94033.50;2055978;69;20636;-75
2022/03/21 10:35:28;;;;;;;;;;;;;;;19.62;22.37;94030.28;2056038;70;20482;-77
2022/03/21 10:37:58;;;;;;;;;;;;;;;18.96;19.55;94029.88;2055933;70;20436;-75
2022/03/21 10:40:34;;;;;;;;;;;;;;;19.15;20.82;94022.25;2055900;70;20426;-76
2022/03/21 10:43:07;;;;;;;;;;;;;;;19.50;20.36;94008.28;2055949;69;20192;-77
2022/03/21 10:45:41;;;;;;;;;;;;;;;21.16;21.14;94005.06;2055868;69;20065;-76
2022/03/21 10:48:07;;;;;;;;;;;;;;;20.80;18.88;94001.38;2055931;69;20054;-76
2022/03/21 10:50:35;;;;;;;;;;;;;;;21.18;20.08;94001.56;2055898;70;20045;-76
2022/03/21 10:53:10;;;;;;;;;;;;;;;22.31;19.59;93996.81;2055875;69;20054;-76
2022/03/21 10:55:35;;;;;;;;;;;;;;;22.05;19.02;93999.38;2055872;70;20156;-75
2022/03/21 10:58:01;;;;;;;;;;;;;;;23.41;18.54;93999.97;2055878;70;20466;-74
2022/03/21 11:00:27;;;;;;;;;;;;;;;22.73;18.28;93999.03;2055768;70;20054;-73
2022/03/21 11:03:00;;;;;;;;;;;;;;;22.55;17.62;93994.09;2055867;70;20084;-75
2022/03/21 11:05:27;;;;;;;;;;;;;;;22.23;18.63;93990.75;2055825;70;20493;-75
2022/03/21 11:07:53;;;;;;;;;;;;;;;22.76;17.71;93980.47;2055872;69;20108;-75
2022/03/21 11:10:20;;;;;;;;;;;;;;;23.95;16.73;93980.19;2055827;69;20059;-76
2022/03/21 11:12:45;;;;;;;;;;;;;;;23.30;16.69;93986.66;2055729;70;20085;-74
2022/03/21 11:15:11;;;;;;;;;;;;;;;23.16;17.27;93978.31;2054858;70;20069;-75
2022/03/21 11:17:37;;;;;;;;;;;;;;;24.49;16.25;93973.91;2054903;70;20047;-76
2022/03/21 11:20:04;;;;;;;;;;;;;;;27.18;15.31;93971.00;2055274;70;20058;-75
2022/03/21 11:22:29;;;;;;;;;;;;;;;27.82;15.31;93973.56;2068389;69;20119;-76
2022/03/21 11:25:00;;;;;;;;;;;;;;;28.19;14.16;93974.84;2055417;70;20189;-76
2022/03/21 11:27:32;;;;;;;;;;;;;;;28.85;14.44;93970.69;2055352;70;20097;-75
2022/03/21 11:30:06;;;;;;;;;;;;;;;28.54;14.11;93963.75;2055045;70;20534;-75
2022/03/21 11:32:38;;;;;;;;;;;;;;;28.31;14.19;93954.00;2055473;70;20482;-76
2022/03/21 11:35:09;;;;;;;;;;;;;;;28.32;14.09;93956.22;2055461;70;20118;-76
2022/03/21 11:37:35;;;;;;;;;;;;;;;25.95;14.91;93941.69;2055506;70;20068;-75
2022/03/21 11:40:19;;;;;;;;;;;;;;;27.86;13.66;93945.44;2055685;70;20133;-76
2022/03/21 11:42:45;;;;;;;;;;;;;;;26.65;13.89;93936.00;2055683;70;20056;-74
2022/03/21 11:45:21;;;;;;;;;;;;;;;30.27;13.12;93938.69;2055413;70;20055;-77
2022/03/21 11:47:46;;;;;;;;;;;;;;;26.49;14.08;93933.50;2055366;70;20077;-74
2022/03/21 11:50:25;;;;;;;;;;;;;;;27.79;13.26;93934.44;2055147;70;20054;-74
2022/03/21 11:53:07;;;;;;;;;;;;;;;30.72;12.80;93922.22;2055299;70;20574;-75
2022/03/21 11:55:42;;;;;;;;;;;;;;;29.85;13.32;93931.84;2055065;70;20059;-74
2022/03/21 11:58:22;;;;;;;;;;;;;;;30.45;13.03;93917.72;2055258;69;20054;-78
2022/03/21 12:01:07;;;;;;;;;;;;;;;31.16;12.03;93918.03;2067983;69;20062;-76
2022/03/21 12:03:33;;;;;;;;;;;;;;;30.28;11.86;93911.09;2068201;69;20429;-76
2022/03/21 12:06:18;;;;;;;;;;;;;;;29.65;12.41;93917.19;2055156;70;20046;-77
2022/03/21 12:08:45;;;;;;;;;;;;;;;32.49;11.83;93912.94;2055460;69;20054;-74
2022/03/21 12:11:30;;;;;;;;;;;;;;;32.74;11.26;93904.84;2055366;69;20076;-76
2022/03/21 12:14:15;;;;;;;;;;;;;;;33.82;11.09;93910.06;2055475;69;20053;-75
2022/03/21 12:16:40;;;;;;;;;;;;;;;35.37;11.08;93898.88;2055465;69;20051;-74
2022/03/21 12:19:06;;;;;;;;;;;;;;;33.99;10.80;93898.25;2055748;70;20050;-75
2022/03/21 12:21:31;;;;;;;;;;;;;;;32.74;10.80;93884.44;2055344;70;20058;-76
2022/03/21 12:24:11;;;;;;;;;;;;;;;28.39;12.34;93878.88;2055385;70;20042;-74
2022/03/21 12:26:36;;;;;;;;;;;;;;;29.19;11.71;93873.97;2068631;69;20046;-73
2022/03/21 12:31:46;;;;;;;;;;;;;;;31.17;11.54;93866.41;2055565;70;20258;-73
2022/03/21 12:34:30;;;;;;;;;;;;;;;29.10;11.51;93861.56;2055443;69;20500;-74
2022/03/21 12:37:05;;;;;;;;;;;;;;;28.51;11.77;93852.97;2055939;69;20430;-73
2022/03/21 12:39:30;;;;;;;;;;;;;;;28.60;12.24;93850.88;2055549;70;20054;-74
2022/03/21 12:41:56;;;;;;;;;;;;;;;28.55;11.95;93840.69;2055673;70;20054;-73
2022/03/21 12:44:22;;;;;;;;;;;;;;;31.00;10.96;93840.19;2055492;70;20479;-73
2022/03/21 12:46:56;;;;;;;;;;;;;;;29.86;10.39;93843.31;2055077;69;20058;-76
2022/03/21 12:49:21;;;;;;;;;;;;;;;31.68;10.96;93837.34;2055078;70;20053;-76
2022/03/21 12:51:47;;;;;;;;;;;;;;;31.41;10.11;93834.44;2055438;70;20058;-76
2022/03/21 12:54:14;;;;;;;;;;;;;;;30.43;10.44;93828.41;2055290;70;20054;-78
2022/03/21 12:56:39;;;;;;;;;;;;;;;30.34;10.75;93832.72;2055419;70;20115;-75
2022/03/21 12:59:05;;;;;;;;;;;;;;;33.57;10.62;93839.47;2068212;69;20082;-76
2022/03/21 13:01:32;;;;;;;;;;;;;;;31.48;11.08;93841.00;2055244;69;20054;-75
2022/03/21 13:10:32;;;;;;;;;;;;;;;33.79;9.85;93832.69;2055186;70;20062;-75
2022/03/21 13:12:26;;;;;;;;;;;;;;;29.26;10.85;93824.00;2055075;70;20124;-76
2022/03/21 13:14:59;;;;;;;;;;;;;;;31.17;10.68;93814.75;2068019;69;20062;-75
2022/03/21 13:17:43;;;;;;;;;;;;;;;31.27;10.26;93820.63;2055375;70;20093;-74
2022/03/21 13:20:09;;;;;;;;;;;;;;;32.09;10.31;93817.63;2054973;69;20061;-74